sensor_id;sensor_type;location;lat;lon;timestamp;P1;P2;P0
67892;PMS7003;54688;52.376;16.744;2022-08-03T00:02:34;19;15;
67892;PMS7003;54688;52.376;16.744;2022-08-03T00:05:36;12;12;
67892;PMS7003;54688;52.376;16.744;2022-08-03T00:08:39;12;12;
67892;PMS7003;54688;52.376;16.744;2022-08-03T00:11:41;15;13;
67892;PMS7003;54688;52.376;16.744;2022-08-03T00:14:43;16;15;
67892;PMS7003;54688;52.376;16.744;2022-08-03T00:17:45;16;15;
67892;PMS7003;54688;52.376;16.744;2022-08-03T00:20:47;12;12;
67892;PMS7003;54688;52.376;16.744;2022-08-03T00:23:51;12;12;
67892;PMS7003;54688;52.376;16.744;2022-08-03T00:26:54;15;15;
67892;PMS7003;54688;52.376;16.744;2022-08-03T00:29:56;18;17;
67892;PMS7003;54688;52.376;16.744;2022-08-03T00:32:58;18;18;
67892;PMS7003;54688;52.376;16.744;2022-08-03T00:36:00;14;14;
67892;PMS7003;54688;52.376;16.744;2022-08-03T00:39:02;14;13;
67892;PMS7003;54688;52.376;16.744;2022-08-03T00:42:04;24;20;
67892;PMS7003;54688;52.376;16.744;2022-08-03T00:45:07;19;18;
67892;PMS7003;54688;52.376;16.744;2022-08-03T00:48:11;18;18;
67892;PMS7003;54688;52.376;16.744;2022-08-03T00:51:13;16;16;
67892;PMS7003;54688;52.376;16.744;2022-08-03T00:54:16;17;16;
67892;PMS7003;54688;52.376;16.744;2022-08-03T00:57:18;17;15;
67892;PMS7003;54688;52.376;16.744;2022-08-03T01:00:23;17;16;
67892;PMS7003;54688;52.376;16.744;2022-08-03T01:03:25;17;13;
67892;PMS7003;54688;52.376;16.744;2022-08-03T01:06:33;17;12;
67892;PMS7003;54688;52.376;16.744;2022-08-03T01:09:40;12;12;
67892;PMS7003;54688;52.376;16.744;2022-08-03T01:12:51;14;12;
67892;PMS7003;54688;52.376;16.744;2022-08-03T01:16:02;15;13;
67892;PMS7003;54688;52.376;16.744;2022-08-03T01:19:17;12;12;
67892;PMS7003;54688;52.376;16.744;2022-08-03T01:22:54;11;11;
67892;PMS7003;54688;52.376;16.744;2022-08-03T01:26:10;13;13;
67892;PMS7003;54688;52.376;16.744;2022-08-03T01:30:26;16;12;
67892;PMS7003;54688;52.376;16.744;2022-08-03T01:33:34;12;10;
67892;PMS7003;54688;52.376;16.744;2022-08-03T01:36:39;14;12;
67892;PMS7003;54688;52.376;16.744;2022-08-03T01:39:44;14;11;
67892;PMS7003;54688;52.376;16.744;2022-08-03T01:42:46;12;11;
67892;PMS7003;54688;52.376;16.744;2022-08-03T01:45:50;12;12;
67892;PMS7003;54688;52.376;16.744;2022-08-03T01:48:53;10;10;
67892;PMS7003;54688;52.376;16.744;2022-08-03T01:51:56;12;12;
67892;PMS7003;54688;52.376;16.744;2022-08-03T01:55:00;12;11;
67892;PMS7003;54688;52.376;16.744;2022-08-03T01:58:03;11;11;
67892;PMS7003;54688;52.376;16.744;2022-08-03T02:01:07;13;13;
67892;PMS7003;54688;52.376;16.744;2022-08-03T02:04:12;14;13;
67892;PMS7003;54688;52.376;16.744;2022-08-03T02:07:15;10;10;
67892;PMS7003;54688;52.376;16.744;2022-08-03T02:10:19;18;14;
67892;PMS7003;54688;52.376;16.744;2022-08-03T02:13:23;17;16;
67892;PMS7003;54688;52.376;16.744;2022-08-03T02:16:27;12;12;
67892;PMS7003;54688;52.376;16.744;2022-08-03T02:19:31;12;12;
67892;PMS7003;54688;52.376;16.744;2022-08-03T02:22:34;14;14;
67892;PMS7003;54688;52.376;16.744;2022-08-03T02:25:42;15;14;
67892;PMS7003;54688;52.376;16.744;2022-08-03T02:28:47;17;15;
67892;PMS7003;54688;52.376;16.744;2022-08-03T02:31:56;18;17;
67892;PMS7003;54688;52.376;16.744;2022-08-03T02:35:01;26;21;
67892;PMS7003;54688;52.376;16.744;2022-08-03T02:38:06;18;17;
67892;PMS7003;54688;52.376;16.744;2022-08-03T02:41:15;20;17;
67892;PMS7003;54688;52.376;16.744;2022-08-03T02:44:21;14;14;
67892;PMS7003;54688;52.376;16.744;2022-08-03T02:47:26;15;15;
67892;PMS7003;54688;52.376;16.744;2022-08-03T02:50:29;18;16;
67892;PMS7003;54688;52.376;16.744;2022-08-03T02:53:32;12;11;
67892;PMS7003;54688;52.376;16.744;2022-08-03T02:56:36;15;14;
67892;PMS7003;54688;52.376;16.744;2022-08-03T02:59:39;15;15;
67892;PMS7003;54688;52.376;16.744;2022-08-03T03:02:41;16;15;
67892;PMS7003;54688;52.376;16.744;2022-08-03T03:05:44;14;13;
67892;PMS7003;54688;52.376;16.744;2022-08-03T03:08:47;13;12;
67892;PMS7003;54688;52.376;16.744;2022-08-03T03:11:50;14;13;
67892;PMS7003;54688;52.376;16.744;2022-08-03T03:14:54;14;12;
67892;PMS7003;54688;52.376;16.744;2022-08-03T03:17:56;15;15;
67892;PMS7003;54688;52.376;16.744;2022-08-03T03:21:02;19;15;
67892;PMS7003;54688;52.376;16.744;2022-08-03T03:24:05;16;15;
67892;PMS7003;54688;52.376;16.744;2022-08-03T03:27:08;18;15;
67892;PMS7003;54688;52.376;16.744;2022-08-03T03:30:12;16;13;
67892;PMS7003;54688;52.376;16.744;2022-08-03T03:33:15;16;14;
67892;PMS7003;54688;52.376;16.744;2022-08-03T03:36:17;16;16;
67892;PMS7003;54688;52.376;16.744;2022-08-03T03:39:20;15;15;
67892;PMS7003;54688;52.376;16.744;2022-08-03T03:42:24;19;17;
67892;PMS7003;54688;52.376;16.744;2022-08-03T03:45:26;16;14;
67892;PMS7003;54688;52.376;16.744;2022-08-03T03:48:29;17;16;
67892;PMS7003;54688;52.376;16.744;2022-08-03T03:51:32;15;15;
67892;PMS7003;54688;52.376;16.744;2022-08-03T03:54:39;15;14;
67892;PMS7003;54688;52.376;16.744;2022-08-03T03:57:41;15;12;
67892;PMS7003;54688;52.376;16.744;2022-08-03T04:00:43;14;14;
67892;PMS7003;54688;52.376;16.744;2022-08-03T04:03:45;15;15;
67892;PMS7003;54688;52.376;16.744;2022-08-03T04:06:47;14;14;
67892;PMS7003;54688;52.376;16.744;2022-08-03T04:09:49;15;15;
67892;PMS7003;54688;52.376;16.744;2022-08-03T04:12:53;19;17;
67892;PMS7003;54688;52.376;16.744;2022-08-03T04:15:58;20;16;
67892;PMS7003;54688;52.376;16.744;2022-08-03T04:19:03;19;19;
67892;PMS7003;54688;52.376;16.744;2022-08-03T04:22:09;19;17;
67892;PMS7003;54688;52.376;16.744;2022-08-03T04:25:15;14;14;
67892;PMS7003;54688;52.376;16.744;2022-08-03T04:28:20;19;17;
67892;PMS7003;54688;52.376;16.744;2022-08-03T04:31:24;15;15;
67892;PMS7003;54688;52.376;16.744;2022-08-03T04:34:27;15;15;
67892;PMS7003;54688;52.376;16.744;2022-08-03T04:37:42;18;18;
67892;PMS7003;54688;52.376;16.744;2022-08-03T04:40:45;18;15;
67892;PMS7003;54688;52.376;16.744;2022-08-03T04:43:48;16;15;
67892;PMS7003;54688;52.376;16.744;2022-08-03T04:46:51;19;19;
67892;PMS7003;54688;52.376;16.744;2022-08-03T04:49:54;19;19;
67892;PMS7003;54688;52.376;16.744;2022-08-03T04:52:58;18;16;
67892;PMS7003;54688;52.376;16.744;2022-08-03T04:56:04;15;13;
67892;PMS7003;54688;52.376;16.744;2022-08-03T04:59:07;17;17;
67892;PMS7003;54688;52.376;16.744;2022-08-03T05:02:09;18;16;
67892;PMS7003;54688;52.376;16.744;2022-08-03T05:05:12;13;13;
67892;PMS7003;54688;52.376;16.744;2022-08-03T05:08:14;16;16;
67892;PMS7003;54688;52.376;16.744;2022-08-03T05:11:16;15;15;
67892;PMS7003;54688;52.376;16.744;2022-08-03T05:14:19;14;14;
67892;PMS7003;54688;52.376;16.744;2022-08-03T05:17:21;20;17;
67892;PMS7003;54688;52.376;16.744;2022-08-03T05:20:23;18;18;
67892;PMS7003;54688;52.376;16.744;2022-08-03T05:23:25;16;16;
67892;PMS7003;54688;52.376;16.744;2022-08-03T05:26:27;18;17;
67892;PMS7003;54688;52.376;16.744;2022-08-03T05:29:29;18;17;
67892;PMS7003;54688;52.376;16.744;2022-08-03T05:32:32;17;16;
67892;PMS7003;54688;52.376;16.744;2022-08-03T05:35:35;13;13;
67892;PMS7003;54688;52.376;16.744;2022-08-03T05:38:38;16;15;
67892;PMS7003;54688;52.376;16.744;2022-08-03T05:41:41;15;14;
67892;PMS7003;54688;52.376;16.744;2022-08-03T05:44:43;10;10;
67892;PMS7003;54688;52.376;16.744;2022-08-03T05:47:46;15;11;
67892;PMS7003;54688;52.376;16.744;2022-08-03T05:50:48;10;10;
67892;PMS7003;54688;52.376;16.744;2022-08-03T05:53:51;12;11;
67892;PMS7003;54688;52.376;16.744;2022-08-03T05:56:53;11;8;
67892;PMS7003;54688;52.376;16.744;2022-08-03T05:59:56;12;10;
67892;PMS7003;54688;52.376;16.744;2022-08-03T06:02:58;10;10;
67892;PMS7003;54688;52.376;16.744;2022-08-03T06:06:00;11;11;
67892;PMS7003;54688;52.376;16.744;2022-08-03T06:09:03;9;9;
67892;PMS7003;54688;52.376;16.744;2022-08-03T06:12:05;9;7;
67892;PMS7003;54688;52.376;16.744;2022-08-03T06:15:08;9;9;
67892;PMS7003;54688;52.376;16.744;2022-08-03T06:18:10;7;7;
67892;PMS7003;54688;52.376;16.744;2022-08-03T06:21:13;9;9;
67892;PMS7003;54688;52.376;16.744;2022-08-03T06:24:15;9;8;
67892;PMS7003;54688;52.376;16.744;2022-08-03T06:27:18;9;9;
67892;PMS7003;54688;52.376;16.744;2022-08-03T06:30:20;10;10;
67892;PMS7003;54688;52.376;16.744;2022-08-03T06:33:24;9;9;
67892;PMS7003;54688;52.376;16.744;2022-08-03T06:36:26;11;9;
67892;PMS7003;54688;52.376;16.744;2022-08-03T06:39:29;15;11;
67892;PMS7003;54688;52.376;16.744;2022-08-03T06:42:31;13;10;
67892;PMS7003;54688;52.376;16.744;2022-08-03T06:45:33;13;10;
67892;PMS7003;54688;52.376;16.744;2022-08-03T06:48:35;12;12;
67892;PMS7003;54688;52.376;16.744;2022-08-03T06:51:38;12;12;
67892;PMS7003;54688;52.376;16.744;2022-08-03T06:54:40;10;10;
67892;PMS7003;54688;52.376;16.744;2022-08-03T06:57:42;10;9;
67892;PMS7003;54688;52.376;16.744;2022-08-03T07:00:45;12;12;
67892;PMS7003;54688;52.376;16.744;2022-08-03T07:03:47;13;10;
67892;PMS7003;54688;52.376;16.744;2022-08-03T07:06:49;15;14;
67892;PMS7003;54688;52.376;16.744;2022-08-03T07:09:52;12;12;
67892;PMS7003;54688;52.376;16.744;2022-08-03T07:12:54;13;11;
67892;PMS7003;54688;52.376;16.744;2022-08-03T07:15:56;11;10;
67892;PMS7003;54688;52.376;16.744;2022-08-03T07:18:59;13;13;
67892;PMS7003;54688;52.376;16.744;2022-08-03T07:22:01;11;11;
67892;PMS7003;54688;52.376;16.744;2022-08-03T07:25:05;13;12;
67892;PMS7003;54688;52.376;16.744;2022-08-03T07:28:07;15;13;
67892;PMS7003;54688;52.376;16.744;2022-08-03T07:31:09;16;16;
67892;PMS7003;54688;52.376;16.744;2022-08-03T07:34:13;14;13;
67892;PMS7003;54688;52.376;16.744;2022-08-03T07:37:15;16;15;
67892;PMS7003;54688;52.376;16.744;2022-08-03T07:40:18;11;10;
67892;PMS7003;54688;52.376;16.744;2022-08-03T07:43:20;13;11;
67892;PMS7003;54688;52.376;16.744;2022-08-03T07:46:22;12;12;
67892;PMS7003;54688;52.376;16.744;2022-08-03T07:49:24;12;10;
67892;PMS7003;54688;52.376;16.744;2022-08-03T07:52:27;10;10;
67892;PMS7003;54688;52.376;16.744;2022-08-03T07:55:29;19;16;
67892;PMS7003;54688;52.376;16.744;2022-08-03T07:58:34;11;11;
67892;PMS7003;54688;52.376;16.744;2022-08-03T08:01:37;15;12;
67892;PMS7003;54688;52.376;16.744;2022-08-03T08:04:39;12;12;
67892;PMS7003;54688;52.376;16.744;2022-08-03T08:07:42;13;12;
67892;PMS7003;54688;52.376;16.744;2022-08-03T08:10:44;12;10;
67892;PMS7003;54688;52.376;16.744;2022-08-03T08:13:46;12;10;
67892;PMS7003;54688;52.376;16.744;2022-08-03T08:16:48;11;11;
67892;PMS7003;54688;52.376;16.744;2022-08-03T08:19:51;12;12;
67892;PMS7003;54688;52.376;16.744;2022-08-03T08:22:54;11;10;
67892;PMS7003;54688;52.376;16.744;2022-08-03T08:25:57;11;11;
67892;PMS7003;54688;52.376;16.744;2022-08-03T08:28:59;15;14;
67892;PMS7003;54688;52.376;16.744;2022-08-03T08:32:01;12;12;
67892;PMS7003;54688;52.376;16.744;2022-08-03T08:35:06;11;9;
67892;PMS7003;54688;52.376;16.744;2022-08-03T08:38:09;8;8;
67892;PMS7003;54688;52.376;16.744;2022-08-03T08:41:12;11;10;
67892;PMS7003;54688;52.376;16.744;2022-08-03T08:44:14;10;10;
67892;PMS7003;54688;52.376;16.744;2022-08-03T08:47:18;12;10;
67892;PMS7003;54688;52.376;16.744;2022-08-03T08:50:21;12;9;
67892;PMS7003;54688;52.376;16.744;2022-08-03T08:53:25;11;11;
67892;PMS7003;54688;52.376;16.744;2022-08-03T08:56:27;9;9;
67892;PMS7003;54688;52.376;16.744;2022-08-03T08:59:31;9;8;
67892;PMS7003;54688;52.376;16.744;2022-08-03T09:02:33;9;9;
67892;PMS7003;54688;52.376;16.744;2022-08-03T09:05:36;9;8;
67892;PMS7003;54688;52.376;16.744;2022-08-03T09:08:38;7;7;
67892;PMS7003;54688;52.376;16.744;2022-08-03T09:11:41;8;8;
67892;PMS7003;54688;52.376;16.744;2022-08-03T09:14:43;10;10;
67892;PMS7003;54688;52.376;16.744;2022-08-03T09:17:46;9;9;
67892;PMS7003;54688;52.376;16.744;2022-08-03T09:20:48;11;10;
67892;PMS7003;54688;52.376;16.744;2022-08-03T09:23:52;10;10;
67892;PMS7003;54688;52.376;16.744;2022-08-03T09:26:55;10;9;
67892;PMS7003;54688;52.376;16.744;2022-08-03T09:29:57;7;7;
67892;PMS7003;54688;52.376;16.744;2022-08-03T09:33:00;9;9;
67892;PMS7003;54688;52.376;16.744;2022-08-03T09:36:04;11;9;
67892;PMS7003;54688;52.376;16.744;2022-08-03T09:39:08;9;9;
67892;PMS7003;54688;52.376;16.744;2022-08-03T09:42:12;11;9;
67892;PMS7003;54688;52.376;16.744;2022-08-03T09:45:25;9;8;
67892;PMS7003;54688;52.376;16.744;2022-08-03T09:48:28;11;9;
67892;PMS7003;54688;52.376;16.744;2022-08-03T09:51:30;6;6;
67892;PMS7003;54688;52.376;16.744;2022-08-03T09:54:33;7;6;
67892;PMS7003;54688;52.376;16.744;2022-08-03T09:57:35;7;7;
67892;PMS7003;54688;52.376;16.744;2022-08-03T10:00:52;6;6;
67892;PMS7003;54688;52.376;16.744;2022-08-03T10:03:57;9;8;
67892;PMS7003;54688;52.376;16.744;2022-08-03T10:07:02;9;9;
67892;PMS7003;54688;52.376;16.744;2022-08-03T10:10:06;8;7;
67892;PMS7003;54688;52.376;16.744;2022-08-03T10:13:09;6;6;
67892;PMS7003;54688;52.376;16.744;2022-08-03T10:16:13;6;6;
67892;PMS7003;54688;52.376;16.744;2022-08-03T10:22:18;8;7;
67892;PMS7003;54688;52.376;16.744;2022-08-03T10:25:21;6;5;
67892;PMS7003;54688;52.376;16.744;2022-08-03T10:28:25;6;6;
67892;PMS7003;54688;52.376;16.744;2022-08-03T10:31:37;6;5;
67892;PMS7003;54688;52.376;16.744;2022-08-03T10:34:41;8;6;
67892;PMS7003;54688;52.376;16.744;2022-08-03T10:37:54;5;5;
67892;PMS7003;54688;52.376;16.744;2022-08-03T10:40:58;6;6;
67892;PMS7003;54688;52.376;16.744;2022-08-03T10:44:03;7;6;
67892;PMS7003;54688;52.376;16.744;2022-08-03T10:47:08;7;7;
67892;PMS7003;54688;52.376;16.744;2022-08-03T10:50:11;6;6;
67892;PMS7003;54688;52.376;16.744;2022-08-03T10:53:13;5;5;
67892;PMS7003;54688;52.376;16.744;2022-08-03T10:56:37;5;5;
67892;PMS7003;54688;52.376;16.744;2022-08-03T10:59:57;6;5;
67892;PMS7003;54688;52.376;16.744;2022-08-03T11:03:04;6;6;
67892;PMS7003;54688;52.376;16.744;2022-08-03T11:06:14;6;6;
67892;PMS7003;54688;52.376;16.744;2022-08-03T11:09:17;5;5;
67892;PMS7003;54688;52.376;16.744;2022-08-03T11:12:22;6;6;
67892;PMS7003;54688;52.376;16.744;2022-08-03T11:15:32;5;5;
67892;PMS7003;54688;52.376;16.744;2022-08-03T11:18:34;6;6;
67892;PMS7003;54688;52.376;16.744;2022-08-03T11:21:54;4;4;
67892;PMS7003;54688;52.376;16.744;2022-08-03T11:24:58;5;4;
67892;PMS7003;54688;52.376;16.744;2022-08-03T11:28:31;6;6;
67892;PMS7003;54688;52.376;16.744;2022-08-03T11:31:44;7;7;
67892;PMS7003;54688;52.376;16.744;2022-08-03T11:35:06;7;7;
67892;PMS7003;54688;52.376;16.744;2022-08-03T11:38:10;6;6;
67892;PMS7003;54688;52.376;16.744;2022-08-03T11:41:31;6;6;
67892;PMS7003;54688;52.376;16.744;2022-08-03T11:44:41;4;4;
67892;PMS7003;54688;52.376;16.744;2022-08-03T11:47:45;5;4;
67892;PMS7003;54688;52.376;16.744;2022-08-03T11:50:48;4;4;
67892;PMS7003;54688;52.376;16.744;2022-08-03T11:53:52;6;5;
67892;PMS7003;54688;52.376;16.744;2022-08-03T11:56:55;5;5;
67892;PMS7003;54688;52.376;16.744;2022-08-03T11:59:58;5;4;
67892;PMS7003;54688;52.376;16.744;2022-08-03T12:03:03;6;5;
67892;PMS7003;54688;52.376;16.744;2022-08-03T12:06:08;4;4;
67892;PMS7003;54688;52.376;16.744;2022-08-03T12:09:14;3;2;
67892;PMS7003;54688;52.376;16.744;2022-08-03T12:12:17;4;4;
67892;PMS7003;54688;52.376;16.744;2022-08-03T12:15:24;4;4;
67892;PMS7003;54688;52.376;16.744;2022-08-03T12:18:26;4;4;
67892;PMS7003;54688;52.376;16.744;2022-08-03T12:21:29;4;4;
67892;PMS7003;54688;52.376;16.744;2022-08-03T12:24:39;2;2;
67892;PMS7003;54688;52.376;16.744;2022-08-03T12:27:42;6;4;
67892;PMS7003;54688;52.376;16.744;2022-08-03T12:30:46;6;6;
67892;PMS7003;54688;52.376;16.744;2022-08-03T12:33:57;6;6;
67892;PMS7003;54688;52.376;16.744;2022-08-03T12:37:03;4;4;
67892;PMS7003;54688;52.376;16.744;2022-08-03T12:40:08;4;4;
67892;PMS7003;54688;52.376;16.744;2022-08-03T12:43:11;6;6;
67892;PMS7003;54688;52.376;16.744;2022-08-03T12:46:16;4;4;
67892;PMS7003;54688;52.376;16.744;2022-08-03T12:49:19;7;4;
67892;PMS7003;54688;52.376;16.744;2022-08-03T12:52:21;5;5;
67892;PMS7003;54688;52.376;16.744;2022-08-03T12:55:24;5;5;
67892;PMS7003;54688;52.376;16.744;2022-08-03T12:58:28;6;6;
67892;PMS7003;54688;52.376;16.744;2022-08-03T13:01:36;4;4;
67892;PMS7003;54688;52.376;16.744;2022-08-03T13:04:38;5;5;
67892;PMS7003;54688;52.376;16.744;2022-08-03T13:07:41;6;4;
67892;PMS7003;54688;52.376;16.744;2022-08-03T13:10:43;4;4;
67892;PMS7003;54688;52.376;16.744;2022-08-03T13:13:46;6;4;
67892;PMS7003;54688;52.376;16.744;2022-08-03T13:16:49;4;4;
67892;PMS7003;54688;52.376;16.744;2022-08-03T13:19:52;7;5;
67892;PMS7003;54688;52.376;16.744;2022-08-03T13:22:54;5;4;
67892;PMS7003;54688;52.376;16.744;2022-08-03T13:25:57;5;5;
67892;PMS7003;54688;52.376;16.744;2022-08-03T13:28:59;5;5;
67892;PMS7003;54688;52.376;16.744;2022-08-03T13:32:03;4;4;
67892;PMS7003;54688;52.376;16.744;2022-08-03T13:35:06;6;6;
67892;PMS7003;54688;52.376;16.744;2022-08-03T13:38:08;5;4;
67892;PMS7003;54688;52.376;16.744;2022-08-03T13:41:12;6;5;
67892;PMS7003;54688;52.376;16.744;2022-08-03T13:44:14;4;4;
67892;PMS7003;54688;52.376;16.744;2022-08-03T13:47:16;5;5;
67892;PMS7003;54688;52.376;16.744;2022-08-03T13:50:18;6;6;
67892;PMS7003;54688;52.376;16.744;2022-08-03T13:53:21;6;3;
67892;PMS7003;54688;52.376;16.744;2022-08-03T13:56:23;4;4;
67892;PMS7003;54688;52.376;16.744;2022-08-03T13:59:25;4;3;
67892;PMS7003;54688;52.376;16.744;2022-08-03T14:02:28;3;3;
67892;PMS7003;54688;52.376;16.744;2022-08-03T14:05:30;4;4;
67892;PMS7003;54688;52.376;16.744;2022-08-03T14:08:32;8;6;
67892;PMS7003;54688;52.376;16.744;2022-08-03T14:11:35;6;6;
67892;PMS7003;54688;52.376;16.744;2022-08-03T14:14:37;7;5;
67892;PMS7003;54688;52.376;16.744;2022-08-03T14:17:39;6;5;
67892;PMS7003;54688;52.376;16.744;2022-08-03T14:20:42;5;5;
67892;PMS7003;54688;52.376;16.744;2022-08-03T14:23:45;4;4;
67892;PMS7003;54688;52.376;16.744;2022-08-03T14:26:47;7;5;
67892;PMS7003;54688;52.376;16.744;2022-08-03T14:29:49;7;6;
67892;PMS7003;54688;52.376;16.744;2022-08-03T14:32:52;7;5;
67892;PMS7003;54688;52.376;16.744;2022-08-03T14:35:55;5;5;
67892;PMS7003;54688;52.376;16.744;2022-08-03T14:38:57;8;7;
67892;PMS7003;54688;52.376;16.744;2022-08-03T14:42:01;9;8;
67892;PMS7003;54688;52.376;16.744;2022-08-03T14:45:04;5;5;
67892;PMS7003;54688;52.376;16.744;2022-08-03T14:48:07;4;4;
67892;PMS7003;54688;52.376;16.744;2022-08-03T14:51:09;4;4;
67892;PMS7003;54688;52.376;16.744;2022-08-03T14:54:11;4;4;
67892;PMS7003;54688;52.376;16.744;2022-08-03T14:57:14;5;5;
67892;PMS7003;54688;52.376;16.744;2022-08-03T15:00:16;4;4;
67892;PMS7003;54688;52.376;16.744;2022-08-03T15:03:20;6;5;
67892;PMS7003;54688;52.376;16.744;2022-08-03T15:06:22;5;4;
67892;PMS7003;54688;52.376;16.744;2022-08-03T15:09:25;6;6;
67892;PMS7003;54688;52.376;16.744;2022-08-03T15:12:27;4;4;
67892;PMS7003;54688;52.376;16.744;2022-08-03T15:15:29;5;5;
67892;PMS7003;54688;52.376;16.744;2022-08-03T15:18:32;6;6;
67892;PMS7003;54688;52.376;16.744;2022-08-03T15:21:34;9;8;
67892;PMS7003;54688;52.376;16.744;2022-08-03T15:24:36;5;4;
67892;PMS7003;54688;52.376;16.744;2022-08-03T15:27:39;5;4;
67892;PMS7003;54688;52.376;16.744;2022-08-03T15:30:41;6;6;
67892;PMS7003;54688;52.376;16.744;2022-08-03T15:33:43;8;8;
67892;PMS7003;54688;52.376;16.744;2022-08-03T15:36:45;6;6;
67892;PMS7003;54688;52.376;16.744;2022-08-03T15:39:47;5;5;
67892;PMS7003;54688;52.376;16.744;2022-08-03T15:42:51;6;6;
67892;PMS7003;54688;52.376;16.744;2022-08-03T15:45:53;5;5;
67892;PMS7003;54688;52.376;16.744;2022-08-03T15:48:55;6;6;
67892;PMS7003;54688;52.376;16.744;2022-08-03T15:51:57;5;5;
67892;PMS7003;54688;52.376;16.744;2022-08-03T15:55:00;8;6;
67892;PMS7003;54688;52.376;16.744;2022-08-03T15:58:02;7;6;
67892;PMS7003;54688;52.376;16.744;2022-08-03T16:01:05;6;6;
67892;PMS7003;54688;52.376;16.744;2022-08-03T16:04:08;6;5;
67892;PMS7003;54688;52.376;16.744;2022-08-03T16:07:10;10;9;
67892;PMS7003;54688;52.376;16.744;2022-08-03T16:10:14;6;6;
67892;PMS7003;54688;52.376;16.744;2022-08-03T16:13:16;7;6;
67892;PMS7003;54688;52.376;16.744;2022-08-03T16:16:19;8;7;
67892;PMS7003;54688;52.376;16.744;2022-08-03T16:19:21;6;6;
67892;PMS7003;54688;52.376;16.744;2022-08-03T16:22:24;6;6;
67892;PMS7003;54688;52.376;16.744;2022-08-03T16:25:27;6;6;
67892;PMS7003;54688;52.376;16.744;2022-08-03T16:28:29;7;7;
67892;PMS7003;54688;52.376;16.744;2022-08-03T16:31:31;7;7;
67892;PMS7003;54688;52.376;16.744;2022-08-03T16:34:34;6;6;
67892;PMS7003;54688;52.376;16.744;2022-08-03T16:37:36;8;6;
67892;PMS7003;54688;52.376;16.744;2022-08-03T16:40:38;8;8;
67892;PMS7003;54688;52.376;16.744;2022-08-03T16:43:42;7;7;
67892;PMS7003;54688;52.376;16.744;2022-08-03T16:46:44;7;7;
67892;PMS7003;54688;52.376;16.744;2022-08-03T16:49:46;6;6;
67892;PMS7003;54688;52.376;16.744;2022-08-03T16:52:48;7;7;
67892;PMS7003;54688;52.376;16.744;2022-08-03T16:55:51;5;5;
67892;PMS7003;54688;52.376;16.744;2022-08-03T16:58:53;8;8;
67892;PMS7003;54688;52.376;16.744;2022-08-03T17:01:55;7;7;
67892;PMS7003;54688;52.376;16.744;2022-08-03T17:04:58;6;6;
67892;PMS7003;54688;52.376;16.744;2022-08-03T17:08:01;6;6;
67892;PMS7003;54688;52.376;16.744;2022-08-03T17:11:03;7;6;
67892;PMS7003;54688;52.376;16.744;2022-08-03T17:14:05;5;5;
67892;PMS7003;54688;52.376;16.744;2022-08-03T17:17:13;7;7;
67892;PMS7003;54688;52.376;16.744;2022-08-03T17:20:16;7;6;
67892;PMS7003;54688;52.376;16.744;2022-08-03T17:23:29;7;7;
67892;PMS7003;54688;52.376;16.744;2022-08-03T17:26:40;6;6;
67892;PMS7003;54688;52.376;16.744;2022-08-03T17:29:46;8;7;
67892;PMS7003;54688;52.376;16.744;2022-08-03T17:32:48;10;8;
67892;PMS7003;54688;52.376;16.744;2022-08-03T17:35:50;7;7;
67892;PMS7003;54688;52.376;16.744;2022-08-03T17:38:53;8;7;
67892;PMS7003;54688;52.376;16.744;2022-08-03T17:41:56;8;8;
67892;PMS7003;54688;52.376;16.744;2022-08-03T17:45:00;8;7;
67892;PMS7003;54688;52.376;16.744;2022-08-03T17:48:03;8;8;
67892;PMS7003;54688;52.376;16.744;2022-08-03T17:51:11;8;6;
67892;PMS7003;54688;52.376;16.744;2022-08-03T17:54:17;8;7;
67892;PMS7003;54688;52.376;16.744;2022-08-03T17:57:25;10;8;
67892;PMS7003;54688;52.376;16.744;2022-08-03T18:00:31;9;7;
67892;PMS7003;54688;52.376;16.744;2022-08-03T18:03:37;9;8;
67892;PMS7003;54688;52.376;16.744;2022-08-03T18:06:43;9;9;
67892;PMS7003;54688;52.376;16.744;2022-08-03T18:09:46;8;6;
67892;PMS7003;54688;52.376;16.744;2022-08-03T18:12:51;8;8;
67892;PMS7003;54688;52.376;16.744;2022-08-03T18:15:59;6;6;
67892;PMS7003;54688;52.376;16.744;2022-08-03T18:19:02;7;7;
67892;PMS7003;54688;52.376;16.744;2022-08-03T18:22:04;11;9;
67892;PMS7003;54688;52.376;16.744;2022-08-03T18:25:07;7;7;
67892;PMS7003;54688;52.376;16.744;2022-08-03T18:28:12;7;7;
67892;PMS7003;54688;52.376;16.744;2022-08-03T18:31:15;11;8;
67892;PMS7003;54688;52.376;16.744;2022-08-03T18:34:19;8;7;
67892;PMS7003;54688;52.376;16.744;2022-08-03T18:37:23;9;9;
67892;PMS7003;54688;52.376;16.744;2022-08-03T18:40:25;10;8;
67892;PMS7003;54688;52.376;16.744;2022-08-03T18:43:27;10;9;
67892;PMS7003;54688;52.376;16.744;2022-08-03T18:46:40;7;7;
67892;PMS7003;54688;52.376;16.744;2022-08-03T18:49:51;8;8;
67892;PMS7003;54688;52.376;16.744;2022-08-03T18:53:02;7;7;
67892;PMS7003;54688;52.376;16.744;2022-08-03T18:56:09;12;9;
67892;PMS7003;54688;52.376;16.744;2022-08-03T18:59:18;12;10;
67892;PMS7003;54688;52.376;16.744;2022-08-03T19:02:28;9;9;
67892;PMS7003;54688;52.376;16.744;2022-08-03T19:05:41;11;10;
67892;PMS7003;54688;52.376;16.744;2022-08-03T19:08:45;9;9;
67892;PMS7003;54688;52.376;16.744;2022-08-03T19:11:51;10;10;
67892;PMS7003;54688;52.376;16.744;2022-08-03T19:14:59;13;12;
67892;PMS7003;54688;52.376;16.744;2022-08-03T19:18:02;11;11;
67892;PMS7003;54688;52.376;16.744;2022-08-03T19:21:05;12;12;
67892;PMS7003;54688;52.376;16.744;2022-08-03T19:24:07;13;12;
67892;PMS7003;54688;52.376;16.744;2022-08-03T19:27:10;13;11;
67892;PMS7003;54688;52.376;16.744;2022-08-03T19:30:14;10;9;
67892;PMS7003;54688;52.376;16.744;2022-08-03T19:33:17;12;10;
67892;PMS7003;54688;52.376;16.744;2022-08-03T19:36:20;13;13;
67892;PMS7003;54688;52.376;16.744;2022-08-03T19:39:22;10;10;
67892;PMS7003;54688;52.376;16.744;2022-08-03T19:42:29;13;13;
67892;PMS7003;54688;52.376;16.744;2022-08-03T19:45:36;11;11;
67892;PMS7003;54688;52.376;16.744;2022-08-03T19:48:42;12;12;
67892;PMS7003;54688;52.376;16.744;2022-08-03T19:51:45;13;13;
67892;PMS7003;54688;52.376;16.744;2022-08-03T19:54:50;12;11;
67892;PMS7003;54688;52.376;16.744;2022-08-03T19:57:55;11;11;
67892;PMS7003;54688;52.376;16.744;2022-08-03T20:00:58;13;11;
67892;PMS7003;54688;52.376;16.744;2022-08-03T20:04:00;13;13;
67892;PMS7003;54688;52.376;16.744;2022-08-03T20:07:03;15;13;
67892;PMS7003;54688;52.376;16.744;2022-08-03T20:10:07;15;14;
67892;PMS7003;54688;52.376;16.744;2022-08-03T20:13:09;13;13;
67892;PMS7003;54688;52.376;16.744;2022-08-03T20:16:11;15;11;
67892;PMS7003;54688;52.376;16.744;2022-08-03T20:19:14;20;17;
67892;PMS7003;54688;52.376;16.744;2022-08-03T20:22:16;28;25;
67892;PMS7003;54688;52.376;16.744;2022-08-03T20:25:24;27;24;
67892;PMS7003;54688;52.376;16.744;2022-08-03T20:28:30;22;21;